Time;durP1;ratioP1;P1;durP2;ratioP2;P2;SDS_P1;SDS_P2;PMS_P1;PMS_P2;Temp;Humidity;BMP_temperature;BMP_pressure;BME280_temperature;BME280_humidity;BME280_pressure;Samples;Min_cycle;Max_cycle;Signal;HPM_P1;HPM_P2
2022/07/11 00:00:11;;;;;;;4.35;2.75;;;15.70;99.90;;;;;;5045701;28;20049;-77
2022/07/11 00:02:42;;;;;;;5.45;2.20;;;15.80;99.90;;;;;;5027199;28;20099;-77
2022/07/11 00:05:09;;;;;;;7.00;2.58;;;15.90;99.90;;;;;;5042358;28;20041;-77
2022/07/11 00:07:36;;;;;;;4.95;2.38;;;15.80;99.90;;;;;;5045224;28;20811;-77
2022/07/11 00:10:03;;;;;;;7.07;2.03;;;15.90;99.90;;;;;;5045581;28;20052;-74
2022/07/11 00:12:28;;;;;;;4.28;2.38;;;15.90;99.90;;;;;;5044801;28;20087;-76
2022/07/11 00:14:55;;;;;;;11.75;4.15;;;15.80;99.90;;;;;;5044709;28;20053;-75
2022/07/11 00:17:20;;;;;;;17.80;4.25;;;15.90;99.90;;;;;;5046020;28;20094;-75
2022/07/11 00:19:46;;;;;;;6.57;2.90;;;15.70;99.90;;;;;;5043265;28;20454;-76
2022/07/11 00:22:12;;;;;;;7.38;2.92;;;15.60;99.90;;;;;;5041844;28;20388;-75
2022/07/11 00:24:38;;;;;;;7.32;3.38;;;15.80;99.90;;;;;;5031107;28;20450;-75
2022/07/11 00:27:04;;;;;;;6.20;4.05;;;15.70;99.90;;;;;;5029318;28;20488;-75
2022/07/11 00:29:30;;;;;;;4.57;3.63;;;15.80;99.90;;;;;;5045750;28;20130;-76
2022/07/11 00:31:57;;;;;;;5.22;3.65;;;15.80;99.90;;;;;;5027610;28;20052;-75
2022/07/11 00:34:23;;;;;;;6.57;3.10;;;15.60;99.90;;;;;;5041446;28;20049;-76
2022/07/11 00:36:48;;;;;;;9.50;3.40;;;15.60;99.90;;;;;;5043772;28;20427;-75
2022/07/11 00:39:14;;;;;;;6.13;2.90;;;15.60;99.90;;;;;;5043635;28;20130;-77
2022/07/11 00:41:40;;;;;;;10.77;4.50;;;15.60;99.90;;;;;;5044235;28;20040;-76
2022/07/11 00:44:05;;;;;;;10.23;3.33;;;15.50;99.90;;;;;;5026923;28;20056;-77
2022/07/11 00:46:31;;;;;;;6.22;3.60;;;15.50;99.90;;;;;;5044390;28;20045;-76
2022/07/11 00:48:58;;;;;;;6.18;2.80;;;15.60;99.90;;;;;;5042124;28;20417;-76
2022/07/11 00:51:25;;;;;;;27.77;4.78;;;15.70;99.90;;;;;;5042851;28;20049;-75
2022/07/11 00:53:56;;;;;;;7.68;3.30;;;15.70;99.90;;;;;;5042882;28;20424;-76
2022/07/11 00:56:26;;;;;;;7.60;3.30;;;15.70;99.90;;;;;;5044011;28;20049;-77
2022/07/11 00:58:54;;;;;;;10.45;3.40;;;15.50;99.90;;;;;;5042444;28;20049;-76
2022/07/11 01:01:20;;;;;;;7.30;2.80;;;15.50;99.90;;;;;;5043969;28;20044;-76
2022/07/11 01:03:46;;;;;;;13.68;4.07;;;15.70;99.90;;;;;;5045927;28;20128;-76
2022/07/11 01:06:12;;;;;;;5.03;3.22;;;15.50;99.90;;;;;;5031082;28;20120;-76
2022/07/11 01:08:39;;;;;;;7.25;2.88;;;15.70;99.90;;;;;;5046536;28;20488;-75
2022/07/11 01:11:12;;;;;;;11.02;3.65;;;15.70;99.90;;;;;;5047499;28;20132;-75
2022/07/11 01:13:42;;;;;;;11.43;3.10;;;15.70;99.90;;;;;;5045680;28;20051;-75
2022/07/11 01:16:18;;;;;;;10.00;3.35;;;15.80;99.90;;;;;;5047334;28;20040;-76
2022/07/11 01:18:49;;;;;;;8.30;3.97;;;15.70;99.90;;;;;;5047954;28;20041;-76
2022/07/11 01:21:30;;;;;;;5.63;3.13;;;15.70;99.90;;;;;;5046556;28;20150;-76
2022/07/11 01:23:58;;;;;;;6.35;3.17;;;15.60;99.90;;;;;;5043283;28;20041;-76
2022/07/11 01:26:25;;;;;;;6.75;3.35;;;15.80;99.90;;;;;;5048950;28;20040;-75
2022/07/11 01:28:51;;;;;;;4.57;3.25;;;15.60;99.90;;;;;;5046753;28;20041;-75
2022/07/11 01:31:18;;;;;;;11.13;4.03;;;15.70;99.90;;;;;;5049768;28;20053;-75
2022/07/11 01:33:44;;;;;;;5.28;2.67;;;15.60;99.90;;;;;;5030167;28;20025;-75
2022/07/11 01:36:10;;;;;;;4.72;2.80;;;15.60;99.90;;;;;;5047913;28;20040;-76
2022/07/11 01:38:36;;;;;;;11.77;3.42;;;15.50;99.90;;;;;;5048261;28;20037;-76
2022/07/11 01:41:02;;;;;;;6.75;3.38;;;15.50;99.90;;;;;;5029841;28;20045;-75
2022/07/11 01:43:28;;;;;;;6.28;3.28;;;15.60;99.90;;;;;;5045777;28;20064;-76
2022/07/11 01:45:55;;;;;;;6.72;4.13;;;15.60;99.90;;;;;;5047726;28;20073;-76
2022/07/11 01:48:21;;;;;;;31.08;4.65;;;15.70;99.90;;;;;;5030500;28;20099;-75
2022/07/11 01:50:48;;;;;;;8.93;3.13;;;15.50;99.90;;;;;;5047042;28;20401;-76
2022/07/11 01:53:14;;;;;;;8.57;3.05;;;15.70;99.90;;;;;;5043620;28;20040;-75
2022/07/11 01:55:39;;;;;;;8.88;3.58;;;15.70;99.90;;;;;;5044773;28;20090;-74
2022/07/11 01:58:05;;;;;;;5.55;3.10;;;15.60;99.90;;;;;;5044739;28;20404;-75
2022/07/11 02:00:31;;;;;;;5.65;2.40;;;15.70;99.90;;;;;;5030216;28;20055;-74
2022/07/11 02:02:57;;;;;;;5.80;3.10;;;15.70;99.90;;;;;;5044716;28;20127;-75
2022/07/11 02:05:22;;;;;;;8.68;3.35;;;15.50;99.90;;;;;;5045874;28;20045;-74
2022/07/11 02:10:32;;;;;;;5.90;3.65;;;15.50;99.90;;;;;;5048143;28;20057;-77
2022/07/11 02:12:59;;;;;;;8.10;2.20;;;15.70;99.90;;;;;;5045588;28;20037;-74
2022/07/11 02:15:28;;;;;;;4.00;2.60;;;15.40;99.90;;;;;;5044926;28;20128;-74
2022/07/11 02:17:54;;;;;;;18.13;4.00;;;15.70;99.90;;;;;;5046276;28;20049;-76
2022/07/11 02:20:21;;;;;;;3.90;2.47;;;15.60;99.90;;;;;;5043445;28;20103;-76
2022/07/11 02:22:48;;;;;;;6.70;2.30;;;15.40;99.90;;;;;;5042949;28;20037;-75
2022/07/11 02:25:14;;;;;;;8.02;2.53;;;15.60;99.90;;;;;;5046530;28;20087;-75
2022/07/11 02:27:40;;;;;;;7.95;2.88;;;15.70;99.90;;;;;;5045933;28;20084;-75
2022/07/11 02:30:06;;;;;;;6.45;2.53;;;15.60;99.90;;;;;;5028876;28;20491;-75
2022/07/11 02:32:32;;;;;;;5.88;2.40;;;15.60;99.90;;;;;;5044814;28;20053;-75
2022/07/11 02:34:57;;;;;;;7.95;2.88;;;15.70;99.90;;;;;;5045281;28;20128;-75
2022/07/11 02:37:23;;;;;;;10.48;3.63;;;15.60;99.90;;;;;;5042924;28;20052;-76
2022/07/11 02:39:49;;;;;;;9.55;4.28;;;15.70;99.90;;;;;;5045972;28;20048;-74
2022/07/11 02:42:14;;;;;;;5.25;3.28;;;15.50;99.90;;;;;;5047814;28;20040;-75
2022/07/11 02:44:40;;;;;;;8.27;2.58;;;15.70;99.90;;;;;;5028902;28;20450;-76
2022/07/11 02:47:06;;;;;;;5.72;2.85;;;15.60;99.90;;;;;;5047111;28;20112;-75
2022/07/11 02:49:32;;;;;;;9.57;3.58;;;15.60;99.90;;;;;;5045443;28;20123;-76
2022/07/11 02:51:58;;;;;;;10.32;4.15;;;15.50;99.90;;;;;;5044420;28;20634;-77
2022/07/11 02:54:24;;;;;;;5.82;3.20;;;15.70;99.90;;;;;;5042923;28;20091;-75
2022/07/11 02:56:50;;;;;;;5.40;2.85;;;15.70;99.90;;;;;;5045278;28;20454;-75
2022/07/11 02:59:16;;;;;;;4.97;2.20;;;15.80;99.90;;;;;;5044627;28;20072;-77
2022/07/11 03:01:41;;;;;;;2.55;2.25;;;15.50;99.90;;;;;;5043824;28;20041;-76
2022/07/11 03:04:10;;;;;;;13.18;3.00;;;15.40;99.90;;;;;;5043580;28;20086;-77
2022/07/11 03:06:38;;;;;;;8.30;3.53;;;15.60;99.90;;;;;;5045901;28;20041;-77
2022/07/11 03:09:05;;;;;;;4.40;2.00;;;15.50;99.90;;;;;;5044432;28;20056;-76
2022/07/11 03:11:31;;;;;;;5.70;3.00;;;15.70;99.90;;;;;;5043931;28;20407;-76
2022/07/11 03:13:57;;;;;;;4.57;1.80;;;15.50;99.90;;;;;;5033042;28;20029;-76
2022/07/11 03:16:23;;;;;;;5.13;1.98;;;15.50;99.90;;;;;;5045762;28;20315;-77
2022/07/11 03:18:49;;;;;;;6.53;1.92;;;15.50;99.90;;;;;;5046335;28;20566;-77
2022/07/11 03:21:14;;;;;;;3.80;2.47;;;15.60;99.90;;;;;;5047244;28;20044;-78
2022/07/11 03:23:40;;;;;;;4.13;2.13;;;15.60;99.90;;;;;;5042674;28;20082;-77
2022/07/11 03:26:06;;;;;;;5.40;2.10;;;15.40;99.90;;;;;;5044256;28;20443;-76
2022/07/11 03:28:31;;;;;;;5.18;1.75;;;15.70;99.90;;;;;;5044929;28;20049;-76
2022/07/11 03:30:57;;;;;;;3.05;2.15;;;15.50;99.90;;;;;;5043348;28;20467;-77
2022/07/11 03:33:23;;;;;;;4.20;2.15;;;15.60;99.90;;;;;;5041511;28;20063;-77
2022/07/11 03:35:48;;;;;;;3.70;2.20;;;15.40;99.90;;;;;;5046001;28;20047;-72
2022/07/11 03:38:18;;;;;;;5.07;2.03;;;15.60;99.90;;;;;;5045154;28;20044;-77
2022/07/11 03:40:44;;;;;;;8.68;2.47;;;15.50;99.90;;;;;;5044392;28;20048;-77
2022/07/11 03:43:10;;;;;;;3.47;2.00;;;15.60;99.90;;;;;;5043492;28;20049;-77
2022/07/11 03:45:36;;;;;;;8.00;2.05;;;15.70;99.90;;;;;;5045977;28;20055;-77
2022/07/11 03:48:03;;;;;;;8.70;2.15;;;15.60;99.90;;;;;;5043546;28;20428;-77
2022/07/11 03:50:29;;;;;;;4.80;1.65;;;15.60;99.90;;;;;;5046037;28;20068;-77
2022/07/11 03:52:55;;;;;;;4.78;2.33;;;15.40;99.90;;;;;;5042215;28;20051;-77
2022/07/11 03:55:21;;;;;;;3.70;1.80;;;15.60;99.90;;;;;;5026575;28;20056;-77
2022/07/11 03:57:47;;;;;;;2.17;1.20;;;15.50;99.90;;;;;;5046296;28;20049;-77
2022/07/11 04:00:13;;;;;;;3.63;1.58;;;15.30;99.90;;;;;;5044521;28;20047;-77
2022/07/11 04:02:39;;;;;;;5.93;1.83;;;15.30;99.90;;;;;;5040810;28;20049;-77
2022/07/11 04:05:05;;;;;;;4.03;1.17;;;15.60;99.90;;;;;;5044339;28;20048;-78
2022/07/11 04:07:31;;;;;;;4.85;2.35;;;15.30;99.90;;;;;;5043353;28;20051;-77
2022/07/11 04:09:57;;;;;;;2.38;1.25;;;15.30;99.90;;;;;;5044190;28;20120;-76
2022/07/11 04:12:23;;;;;;;2.80;1.48;;;15.40;99.90;;;;;;5044710;28;20040;-77
2022/07/11 04:14:49;;;;;;;3.30;1.25;;;15.60;99.90;;;;;;5043003;28;20094;-75
2022/07/11 04:17:14;;;;;;;2.58;0.82;;;15.60;99.90;;;;;;5044844;28;20052;-75
2022/07/11 04:19:42;;;;;;;1.42;1.10;;;15.40;99.90;;;;;;5045672;28;20659;-75
2022/07/11 04:22:08;;;;;;;2.90;1.40;;;15.60;99.90;;;;;;5043409;28;20056;-76
2022/07/11 04:24:34;;;;;;;2.72;1.52;;;15.60;99.90;;;;;;5044357;28;20044;-76
2022/07/11 04:26:59;;;;;;;2.60;1.33;;;15.50;99.90;;;;;;5043900;28;20183;-77
2022/07/11 04:29:25;;;;;;;5.25;1.58;;;15.60;99.90;;;;;;5042532;28;20044;-77
2022/07/11 04:31:52;;;;;;;1.65;0.73;;;15.70;99.90;;;;;;5042560;28;20052;-76
2022/07/11 04:34:17;;;;;;;3.05;1.23;;;15.60;99.90;;;;;;5041407;28;20064;-77
2022/07/11 04:36:43;;;;;;;1.73;1.13;;;15.30;99.90;;;;;;5043457;28;20041;-77
2022/07/11 04:39:09;;;;;;;3.20;1.48;;;15.70;99.90;;;;;;5048098;28;20918;-76
2022/07/11 04:41:35;;;;;;;1.50;1.40;;;15.50;99.90;;;;;;5047200;28;20064;-75
2022/07/11 04:44:01;;;;;;;1.40;1.20;;;15.50;99.90;;;;;;5049313;28;20107;-75
2022/07/11 04:46:27;;;;;;;2.08;1.00;;;15.50;99.90;;;;;;5030153;28;20029;-75
2022/07/11 04:48:52;;;;;;;3.03;0.93;;;15.80;99.90;;;;;;5048097;28;20076;-75
2022/07/11 04:51:18;;;;;;;4.20;1.70;;;15.40;99.90;;;;;;5047295;28;20943;-76
2022/07/11 04:53:44;;;;;;;1.75;1.08;;;15.80;99.90;;;;;;5030980;28;20476;-76
2022/07/11 04:56:10;;;;;;;3.63;1.48;;;15.60;99.90;;;;;;5048708;28;20057;-75
2022/07/11 04:58:35;;;;;;;2.92;1.05;;;15.80;99.90;;;;;;5048966;28;20403;-75
2022/07/11 05:01:02;;;;;;;3.42;1.00;;;15.80;99.90;;;;;;5042955;28;20479;-75
2022/07/11 05:03:28;;;;;;;2.72;1.48;;;15.80;99.90;;;;;;5047690;28;20445;-75
2022/07/11 05:05:55;;;;;;;2.35;1.05;;;15.60;99.90;;;;;;5047552;28;20403;-76
2022/07/11 05:08:21;;;;;;;3.15;1.00;;;15.70;99.90;;;;;;5045201;28;20033;-76
2022/07/11 05:10:47;;;;;;;5.10;1.27;;;15.60;99.90;;;;;;5031164;28;20076;-76
2022/07/11 05:13:13;;;;;;;2.42;1.10;;;15.70;99.90;;;;;;5047946;28;20561;-75
2022/07/11 05:15:39;;;;;;;3.70;1.00;;;15.70;99.90;;;;;;5047253;28;20045;-75
2022/07/11 05:18:05;;;;;;;1.63;1.17;;;15.90;99.90;;;;;;5047648;28;20119;-75
2022/07/11 05:20:31;;;;;;;3.75;0.95;;;15.70;99.90;;;;;;5048548;28;20041;-75
2022/07/11 05:22:57;;;;;;;2.25;1.00;;;16.00;99.90;;;;;;5046143;28;20483;-75
2022/07/11 05:25:23;;;;;;;3.45;1.08;;;16.10;99.90;;;;;;5046071;28;20396;-75
2022/07/11 05:27:49;;;;;;;1.45;1.05;;;15.90;99.90;;;;;;5043660;28;20044;-75
2022/07/11 05:30:14;;;;;;;3.17;0.95;;;16.10;99.90;;;;;;5045244;28;20053;-75
2022/07/11 05:32:40;;;;;;;5.38;1.52;;;16.20;99.90;;;;;;5047609;28;20029;-75
2022/07/11 05:35:06;;;;;;;2.53;1.20;;;16.00;99.90;;;;;;5046694;28;20052;-75
2022/07/11 05:37:32;;;;;;;1.33;0.98;;;16.10;99.90;;;;;;5046065;28;20045;-77
2022/07/11 05:39:58;;;;;;;2.35;1.10;;;16.10;99.90;;;;;;5045139;28;20048;-75
2022/07/11 05:42:24;;;;;;;3.92;0.90;;;16.10;99.90;;;;;;5048167;28;20048;-76
2022/07/11 05:44:49;;;;;;;3.00;0.82;;;15.80;99.90;;;;;;5046330;28;20187;-75
2022/07/11 05:47:16;;;;;;;1.13;1.00;;;16.10;99.90;;;;;;5044401;28;20055;-75
2022/07/11 05:49:42;;;;;;;2.75;1.70;;;16.20;99.90;;;;;;5026965;28;20063;-75
2022/07/11 05:52:08;;;;;;;1.05;0.65;;;15.90;99.90;;;;;;5043436;28;20515;-76
2022/07/11 05:54:34;;;;;;;2.15;0.98;;;16.00;99.90;;;;;;5046200;28;20037;-75
2022/07/11 05:57:03;;;;;;;5.40;1.95;;;16.00;99.90;;;;;;5045315;28;20137;-75
2022/07/11 05:59:29;;;;;;;4.30;1.00;;;16.20;99.90;;;;;;5043678;28;20127;-75
2022/07/11 06:01:55;;;;;;;3.13;1.00;;;15.90;99.90;;;;;;5045495;28;20041;-75
2022/07/11 06:04:21;;;;;;;1.58;0.90;;;16.20;99.90;;;;;;5048047;28;20095;-75
2022/07/11 06:06:46;;;;;;;2.47;0.50;;;16.10;99.90;;;;;;5028731;28;20083;-74
2022/07/11 06:09:12;;;;;;;1.48;0.57;;;16.00;99.90;;;;;;5044987;28;20047;-75
2022/07/11 06:11:38;;;;;;;2.42;0.63;;;16.20;99.90;;;;;;5046882;28;20107;-75
2022/07/11 06:14:05;;;;;;;3.00;0.88;;;16.20;99.90;;;;;;5046498;28;20045;-74
2022/07/11 06:16:31;;;;;;;1.75;0.45;;;16.30;99.90;;;;;;5044560;28;20124;-75
2022/07/11 06:18:57;;;;;;;1.83;0.77;;;16.20;99.90;;;;;;5046603;28;20063;-74
2022/07/11 06:21:23;;;;;;;0.65;0.38;;;16.10;99.90;;;;;;5045312;28;20548;-76
2022/07/11 06:23:48;;;;;;;0.88;0.40;;;16.20;99.90;;;;;;5045140;28;20467;-73
2022/07/11 06:26:15;;;;;;;0.30;0.30;;;16.20;99.90;;;;;;5045992;28;20133;-75
2022/07/11 06:28:41;;;;;;;0.50;0.30;;;16.30;99.90;;;;;;5046756;28;20112;-75
2022/07/11 06:31:08;;;;;;;0.43;0.35;;;16.30;99.90;;;;;;5042339;28;20037;-75
2022/07/11 06:33:37;;;;;;;0.75;0.45;;;16.30;99.90;;;;;;5046528;28;20029;-75
2022/07/11 06:36:04;;;;;;;0.63;0.20;;;16.30;99.90;;;;;;5046109;28;20044;-75
2022/07/11 06:38:30;;;;;;;0.30;0.10;;;16.20;99.90;;;;;;5044313;28;20044;-75
2022/07/11 06:40:56;;;;;;;2.42;0.75;;;16.20;99.90;;;;;;5045955;28;20128;-75
2022/07/11 06:43:22;;;;;;;0.47;0.40;;;16.30;99.90;;;;;;5047371;28;20124;-77
2022/07/11 06:45:48;;;;;;;0.85;0.10;;;16.60;99.90;;;;;;5045327;28;20139;-77
2022/07/11 06:48:14;;;;;;;1.23;0.50;;;16.60;99.90;;;;;;5043560;28;20037;-77
2022/07/11 06:50:40;;;;;;;1.13;0.20;;;16.50;99.90;;;;;;5046433;28;20201;-76
2022/07/11 06:53:06;;;;;;;0.38;0.20;;;16.20;99.90;;;;;;5044935;28;20041;-78
2022/07/11 06:55:33;;;;;;;0.80;0.47;;;16.20;99.90;;;;;;5043219;28;20048;-79
2022/07/11 06:57:59;;;;;;;0.68;0.10;;;16.30;99.90;;;;;;5060517;28;20898;-77
2022/07/11 07:00:25;;;;;;;1.05;0.32;;;16.30;99.90;;;;;;5044786;28;20053;-76
2022/07/11 07:02:50;;;;;;;1.60;0.40;;;16.10;99.90;;;;;;5043588;28;20037;-77
2022/07/11 07:05:16;;;;;;;0.85;0.30;;;16.10;99.90;;;;;;5045860;28;20037;-75
2022/07/11 07:07:42;;;;;;;1.13;0.20;;;16.10;99.90;;;;;;5037627;28;20044;-75
2022/07/11 07:10:08;;;;;;;1.25;0.52;;;16.30;99.90;;;;;;5015459;28;20037;-75
2022/07/11 07:12:38;;;;;;;4.95;0.77;;;16.30;99.90;;;;;;5042037;28;20076;-77
2022/07/11 07:15:04;;;;;;;1.67;0.35;;;16.30;99.90;;;;;;5046410;28;20488;-78
2022/07/11 07:17:31;;;;;;;0.50;0.30;;;16.40;99.90;;;;;;5044109;28;20052;-77
2022/07/11 07:19:56;;;;;;;0.68;0.28;;;16.50;99.90;;;;;;5044843;28;20411;-77
2022/07/11 07:22:22;;;;;;;0.93;0.43;;;16.70;99.90;;;;;;5043696;28;20041;-78
2022/07/11 07:24:48;;;;;;;1.58;0.52;;;16.60;99.90;;;;;;5028897;28;20084;-78
2022/07/11 07:27:14;;;;;;;0.77;0.10;;;16.60;99.90;;;;;;5043613;28;20041;-77
2022/07/11 07:29:40;;;;;;;0.30;0.20;;;16.70;99.90;;;;;;5044733;28;20743;-75
2022/07/11 07:32:06;;;;;;;1.35;0.13;;;16.60;99.90;;;;;;5042560;28;20499;-76
2022/07/11 07:34:32;;;;;;;0.20;0.20;;;16.60;99.90;;;;;;5044102;28;20172;-76
2022/07/11 07:36:59;;;;;;;0.32;0.15;;;16.40;99.90;;;;;;5040747;28;20132;-76
2022/07/11 07:39:24;;;;;;;0.75;0.40;;;16.60;99.90;;;;;;5040941;28;20048;-78
2022/07/11 07:41:50;;;;;;;2.78;0.77;;;16.70;99.90;;;;;;5045278;28;20045;-75
2022/07/11 07:44:16;;;;;;;1.15;0.25;;;16.60;99.90;;;;;;5046498;28;20045;-75
2022/07/11 07:46:42;;;;;;;1.05;0.35;;;16.70;99.90;;;;;;5044354;28;20580;-77
2022/07/11 07:49:07;;;;;;;0.35;0.10;;;16.50;99.90;;;;;;5040846;28;20049;-78
2022/07/11 07:51:33;;;;;;;0.32;0.20;;;16.40;99.90;;;;;;5044300;28;20037;-77
2022/07/11 07:53:59;;;;;;;1.05;0.10;;;16.60;99.90;;;;;;5043563;28;20110;-78
2022/07/11 07:56:25;;;;;;;0.57;0.25;;;16.60;99.90;;;;;;5046068;28;20060;-79
2022/07/11 07:58:54;;;;;;;0.10;0.10;;;16.40;99.90;;;;;;5045371;28;20048;-78
2022/07/11 08:01:35;;;;;;;0.75;0.30;;;16.60;99.90;;;;;;5045206;28;20064;-80
2022/07/11 08:04:08;;;;;;;1.80;0.30;;;16.60;99.90;;;;;;5049616;28;20036;-79
2022/07/11 08:06:34;;;;;;;1.08;0.30;;;17.20;99.90;;;;;;5051738;28;20037;-79
2022/07/11 08:09:01;;;;;;;1.00;0.20;;;17.70;99.90;;;;;;5032655;28;20048;-79
2022/07/11 08:11:27;;;;;;;0.65;0.30;;;17.80;99.90;;;;;;5045676;28;20044;-77
2022/07/11 08:13:53;;;;;;;1.20;0.30;;;17.80;99.90;;;;;;5049796;28;20036;-78
2022/07/11 08:16:19;;;;;;;1.80;0.20;;;17.80;99.90;;;;;;5049576;28;20419;-75
2022/07/11 08:18:45;;;;;;;0.57;0.10;;;17.70;99.90;;;;;;5047521;28;20045;-77
2022/07/11 08:21:10;;;;;;;0.85;0.28;;;17.50;99.90;;;;;;5030344;28;20525;-79
2022/07/11 08:23:37;;;;;;;0.52;0.35;;;17.50;99.90;;;;;;5033077;28;20164;-82
2022/07/11 08:26:03;;;;;;;1.55;0.30;;;17.20;99.90;;;;;;5044285;28;20045;-79
2022/07/11 08:28:29;;;;;;;3.05;0.40;;;17.50;99.90;;;;;;5049285;28;20041;-79
2022/07/11 08:30:54;;;;;;;0.50;0.20;;;17.50;99.90;;;;;;5047102;28;20482;-77
2022/07/11 08:33:20;;;;;;;1.27;0.20;;;17.60;99.90;;;;;;5046507;28;20430;-79
2022/07/11 08:35:46;;;;;;;0.88;0.43;;;17.60;99.90;;;;;;5050099;28;20044;-78
2022/07/11 08:38:12;;;;;;;0.88;0.38;;;17.40;99.90;;;;;;5048745;28;20044;-81
2022/07/11 08:40:42;;;;;;;1.13;0.25;;;17.50;99.90;;;;;;5050427;28;20049;-77
2022/07/11 08:43:16;;;;;;;3.50;0.30;;;17.40;99.90;;;;;;5046920;28;20051;-78
2022/07/11 08:45:42;;;;;;;1.60;0.20;;;18.00;99.90;;;;;;5046239;28;20041;-77
2022/07/11 08:48:11;;;;;;;1.02;0.20;;;17.90;99.90;;;;;;5045213;28;20297;-79
2022/07/11 08:50:37;;;;;;;0.90;0.20;;;18.10;99.90;;;;;;5038410;28;20504;-77
2022/07/11 08:53:06;;;;;;;0.90;0.20;;;17.70;99.90;;;;;;5045198;28;20037;-77
2022/07/11 08:55:31;;;;;;;0.40;0.10;;;17.60;99.90;;;;;;5046130;28;20183;-78
2022/07/11 08:57:58;;;;;;;0.45;0.10;;;17.70;99.90;;;;;;5046551;28;20132;-77
2022/07/11 09:00:24;;;;;;;1.95;0.28;;;17.60;99.90;;;;;;5043962;28;20440;-75
2022/07/11 09:02:51;;;;;;;0.38;0.20;;;17.80;99.90;;;;;;5046211;28;20408;-76
2022/07/11 09:05:16;;;;;;;1.08;0.65;;;17.90;99.90;;;;;;5045762;28;20507;-77
2022/07/11 09:07:44;;;;;;;0.32;0.10;;;18.10;99.90;;;;;;5047118;28;20045;-77
2022/07/11 09:10:10;;;;;;;1.60;0.20;;;17.90;99.90;;;;;;5045476;28;20428;-77
2022/07/11 09:12:35;;;;;;;3.38;0.40;;;18.00;99.90;;;;;;5048393;28;20052;-77
2022/07/11 09:15:01;;;;;;;0.95;0.20;;;17.70;99.90;;;;;;5042336;28;20051;-75
2022/07/11 09:17:30;;;;;;;0.10;0.10;;;17.70;99.90;;;;;;5045973;28;20597;-76
2022/07/11 09:19:56;;;;;;;0.25;0.10;;;17.90;99.90;;;;;;5043219;28;20053;-75
2022/07/11 09:28:01;;;;;;;0.17;0.17;;;19.10;99.90;;;;;;5026531;28;20045;-76
2022/07/11 09:30:29;;;;;;;0.88;0.20;;;19.00;99.90;;;;;;5035185;28;20084;-77
2022/07/11 09:33:05;;;;;;;2.25;0.47;;;18.90;99.90;;;;;;5047549;28;20110;-79
2022/07/11 09:35:34;;;;;;;0.40;0.10;;;18.70;99.90;;;;;;5039082;28;20053;-76
2022/07/11 09:38:11;;;;;;;0.95;0.30;;;18.50;99.90;;;;;;5045285;28;20071;-76
2022/07/11 09:40:38;;;;;;;2.10;0.30;;;18.50;99.90;;;;;;5046872;28;20495;-83
2022/07/11 09:43:05;;;;;;;1.35;0.20;;;18.30;99.90;;;;;;5047873;28;20465;-77
2022/07/11 09:45:32;;;;;;;0.65;0.20;;;18.20;99.90;;;;;;5045755;28;20130;-76
2022/07/11 09:48:09;;;;;;;2.30;0.20;;;18.10;99.90;;;;;;5043426;28;20049;-77
2022/07/11 09:50:34;;;;;;;2.08;0.20;;;18.10;99.90;;;;;;5044731;28;20056;-77
2022/07/11 09:53:09;;;;;;;1.30;0.10;;;18.10;99.90;;;;;;5046053;28;20037;-77
2022/07/11 09:55:40;;;;;;;1.02;0.10;;;18.20;99.90;;;;;;5044576;28;20045;-77
2022/07/11 09:58:07;;;;;;;0.73;0.20;;;18.40;99.90;;;;;;5048124;28;20048;-78
2022/07/11 10:00:35;;;;;;;1.13;0.20;;;18.50;99.90;;;;;;5044775;28;20420;-78
2022/07/11 10:03:01;;;;;;;1.25;0.13;;;18.50;99.90;;;;;;5044888;28;20102;-78
2022/07/11 10:05:27;;;;;;;0.10;0.10;;;18.80;99.90;;;;;;5043275;28;20106;-77
2022/07/11 10:07:53;;;;;;;0.22;0.22;;;18.90;99.90;;;;;;5045670;28;20056;-77
2022/07/11 10:10:19;;;;;;;1.58;0.22;;;18.90;99.90;;;;;;5043497;28;20052;-76
2022/07/11 10:12:46;;;;;;;1.40;0.20;;;19.00;99.90;;;;;;5045075;28;20048;-77
2022/07/11 10:15:15;;;;;;;1.23;0.15;;;18.90;99.90;;;;;;5044621;28;20147;-76
2022/07/11 10:18:04;;;;;;;0.63;0.20;;;18.80;99.90;;;;;;5046851;28;20040;-76
2022/07/11 10:20:46;;;;;;;0.73;0.10;;;18.70;99.90;;;;;;5043380;28;20052;-75
2022/07/11 10:23:43;;;;;;;0.20;0.20;;;18.80;99.90;;;;;;5045951;28;20052;-76
2022/07/11 10:26:15;;;;;;;1.55;0.10;;;18.60;99.90;;;;;;5027673;28;20045;-74
2022/07/11 10:28:47;;;;;;;0.40;0.40;;;18.70;99.90;;;;;;5042598;28;20056;-74
2022/07/11 10:31:21;;;;;;;0.32;0.17;;;18.80;99.90;;;;;;5041948;28;20356;-75
2022/07/11 10:34:03;;;;;;;0.40;0.20;;;18.60;99.90;;;;;;5044640;28;20049;-74
2022/07/11 10:36:31;;;;;;;0.98;0.13;;;18.80;99.90;;;;;;5042500;28;20053;-76
2022/07/11 10:39:16;;;;;;;1.20;0.10;;;18.90;99.90;;;;;;5047156;28;20049;-75
2022/07/11 10:41:42;;;;;;;0.32;0.20;;;18.80;99.90;;;;;;5042908;28;20488;-71
2022/07/11 10:44:08;;;;;;;1.98;0.20;;;18.90;99.90;;;;;;5043770;28;20732;-74
2022/07/11 10:46:35;;;;;;;0.60;0.10;;;18.90;99.90;;;;;;5042289;28;20048;-75
2022/07/11 10:49:13;;;;;;;1.83;0.30;;;19.00;99.90;;;;;;5043310;28;20059;-75
2022/07/11 10:51:55;;;;;;;0.13;0.10;;;19.10;99.90;;;;;;5042952;28;20048;-74
2022/07/11 10:54:32;;;;;;;1.65;0.10;;;19.10;99.90;;;;;;5043030;28;20044;-74
2022/07/11 10:57:10;;;;;;;0.10;0.10;;;19.20;99.90;;;;;;5025350;28;20436;-75
2022/07/11 10:59:58;;;;;;;0.10;0.10;;;19.20;99.90;;;;;;5027238;28;20034;-72
2022/07/11 11:02:28;;;;;;;0.85;0.10;;;19.20;99.90;;;;;;5043870;28;20049;-75
2022/07/11 11:04:58;;;;;;;2.20;0.85;;;19.30;99.90;;;;;;5008934;28;20053;-74
2022/07/11 11:07:36;;;;;;;0.30;0.10;;;19.40;99.90;;;;;;5016127;28;20045;-74
2022/07/11 11:10:23;;;;;;;0.75;0.00;;;19.50;99.90;;;;;;5032786;28;20053;-74
2022/07/11 11:13:05;;;;;;;0.32;0.10;;;19.40;99.90;;;;;;5046279;28;20671;-74
2022/07/11 11:15:43;;;;;;;0.40;0.35;;;19.50;99.90;;;;;;5046014;28;20208;-74
2022/07/11 11:18:24;;;;;;;0.90;0.43;;;19.40;99.90;;;;;;5041978;28;20056;-74
2022/07/11 11:20:59;;;;;;;0.55;0.20;;;19.40;99.90;;;;;;5023689;28;20504;-74
2022/07/11 11:23:29;;;;;;;0.68;0.10;;;19.40;99.90;;;;;;5038333;28;20064;-74
2022/07/11 11:26:03;;;;;;;;;;;19.50;99.90;;;;;;5044487;28;20143;-75
2022/07/11 11:28:28;;;;;;;0.57;0.20;;;19.70;99.90;;;;;;5026475;28;20007;-73
2022/07/11 11:30:59;;;;;;;2.08;0.20;;;19.80;99.90;;;;;;5044912;28;20041;-75
2022/07/11 11:33:27;;;;;;;0.35;0.25;;;19.80;99.90;;;;;;5045484;28;20076;-74
2022/07/11 11:36:04;;;;;;;1.58;0.22;;;19.80;99.90;;;;;;5043229;28;20128;-74
2022/07/11 11:38:34;;;;;;;2.22;0.15;;;19.70;99.90;;;;;;5042181;28;20045;-75
2022/07/11 11:40:59;;;;;;;0.75;0.10;;;19.70;99.90;;;;;;5043702;28;20048;-74
2022/07/11 11:43:25;;;;;;;0.90;0.20;;;19.80;99.90;;;;;;5046134;28;20037;-74
2022/07/11 11:45:52;;;;;;;1.38;0.13;;;19.90;99.90;;;;;;5044251;28;20045;-74
2022/07/11 11:48:37;;;;;;;1.58;0.25;;;20.00;99.90;;;;;;5029893;28;20046;-75
2022/07/11 11:51:12;;;;;;;0.10;0.10;;;19.90;99.90;;;;;;5042299;28;20131;-75
2022/07/11 11:53:43;;;;;;;0.35;0.13;;;19.70;99.90;;;;;;5042182;28;20037;-75
2022/07/11 11:56:21;;;;;;;0.32;0.30;;;19.70;99.90;;;;;;5043256;28;20501;-75
2022/07/11 11:58:48;;;;;;;0.30;0.10;;;19.90;99.90;;;;;;5042467;28;20049;-75
2022/07/11 12:01:19;;;;;;;0.10;0.10;;;20.00;99.90;;;;;;5044960;28;20037;-74
2022/07/11 12:03:59;;;;;;;0.95;0.13;;;20.00;99.90;;;;;;5044872;28;20033;-74
2022/07/11 12:06:28;;;;;;;0.35;0.13;;;20.10;99.90;;;;;;5043806;28;20053;-73
2022/07/11 12:09:16;;;;;;;0.27;0.10;;;19.80;99.90;;;;;;5040577;28;20086;-74
2022/07/11 12:11:44;;;;;;;0.10;0.10;;;19.70;99.90;;;;;;5043920;28;20064;-74
2022/07/11 12:14:12;;;;;;;2.65;0.20;;;19.80;99.90;;;;;;5043021;28;20122;-74
2022/07/11 12:16:47;;;;;;;3.13;0.65;;;19.80;99.90;;;;;;5045561;28;20041;-74
2022/07/11 12:19:22;;;;;;;0.30;0.30;;;19.90;99.90;;;;;;5044876;28;20522;-74
2022/07/11 12:21:50;;;;;;;1.88;1.08;;;19.80;99.90;;;;;;5044542;28;20033;-74
2022/07/11 12:24:21;;;;;;;2.40;0.20;;;19.90;99.90;;;;;;5043345;28;20105;-74
2022/07/11 12:26:47;;;;;;;0.35;0.20;;;20.20;99.90;;;;;;5045318;28;20068;-74
2022/07/11 12:29:22;;;;;;;0.43;0.30;;;20.30;99.90;;;;;;5043644;28;20120;-74
2022/07/11 12:31:57;;;;;;;2.67;0.30;;;20.00;99.90;;;;;;5044976;28;20040;-73
2022/07/11 12:34:32;;;;;;;0.28;0.13;;;20.00;99.90;;;;;;5044493;28;20041;-73
2022/07/11 12:37:16;;;;;;;0.75;0.20;;;19.90;99.90;;;;;;5025957;28;20578;-73
2022/07/11 12:39:51;;;;;;;3.30;0.20;;;20.00;99.90;;;;;;5044012;28;20045;-73
2022/07/11 12:42:24;;;;;;;0.22;0.20;;;20.20;99.90;;;;;;5027363;28;20182;-73
2022/07/11 12:45:07;;;;;;;1.13;0.68;;;20.20;99.90;;;;;;5042412;28;20922;-75
2022/07/11 12:47:38;;;;;;;0.57;0.30;;;20.20;99.90;;;;;;5043476;28;20471;-74
2022/07/11 12:50:15;;;;;;;1.73;0.20;;;20.00;99.90;;;;;;5042461;28;20106;-74
2022/07/11 12:52:47;;;;;;;0.95;0.25;;;19.90;99.90;;;;;;5044119;28;20045;-75
2022/07/11 12:55:27;;;;;;;0.70;0.20;;;19.80;99.90;;;;;;5028616;28;20044;-74
2022/07/11 12:58:06;;;;;;;0.80;0.80;;;19.90;99.90;;;;;;5043547;28;20048;-75